sensor_id;sensor_type;location;lat;lon;timestamp;temperature;humidity
1107;DHT22;540;49.448;8.612;2022-12-17T15:53:05;-4.40;99.90
1107;DHT22;540;49.448;8.612;2022-12-17T15:55:34;-4.30;99.90
1107;DHT22;540;49.448;8.612;2022-12-17T15:58:03;-4.20;99.90
1107;DHT22;540;49.448;8.612;2022-12-17T16:00:31;-4.20;99.90
1107;DHT22;540;49.448;8.612;2022-12-17T16:02:59;-4.20;99.90
1107;DHT22;540;49.448;8.612;2022-12-17T16:05:27;-4.00;99.90
1107;DHT22;540;49.448;8.612;2022-12-17T16:07:54;-3.90;99.90
1107;DHT22;540;49.448;8.612;2022-12-17T16:10:25;-4.60;99.90
1107;DHT22;540;49.448;8.612;2022-12-17T16:12:53;-4.10;99.90
1107;DHT22;540;49.448;8.612;2022-12-17T16:15:21;-4.00;99.90
1107;DHT22;540;49.448;8.612;2022-12-17T16:17:49;-4.00;99.90
1107;DHT22;540;49.448;8.612;2022-12-17T16:20:18;-3.80;99.90
1107;DHT22;540;49.448;8.612;2022-12-17T16:22:46;-3.90;99.90
1107;DHT22;540;49.448;8.612;2022-12-17T16:25:14;-4.20;99.90
1107;DHT22;540;49.448;8.612;2022-12-17T16:27:43;-4.00;99.90
1107;DHT22;540;49.448;8.612;2022-12-17T16:30:12;-4.00;99.90
1107;DHT22;540;49.448;8.612;2022-12-17T16:32:40;-4.00;99.90
1107;DHT22;540;49.448;8.612;2022-12-17T16:35:08;-4.00;99.90
1107;DHT22;540;49.448;8.612;2022-12-17T16:37:36;-4.00;99.90
1107;DHT22;540;49.448;8.612;2022-12-17T16:40:05;-3.90;99.90
1107;DHT22;540;49.448;8.612;2022-12-17T16:42:33;-3.90;99.90
1107;DHT22;540;49.448;8.612;2022-12-17T16:45:02;-4.30;99.90
1107;DHT22;540;49.448;8.612;2022-12-17T16:47:30;-3.90;99.90
1107;DHT22;540;49.448;8.612;2022-12-17T16:49:58;-3.70;99.90
1107;DHT22;540;49.448;8.612;2022-12-17T16:52:26;-3.70;99.90
1107;DHT22;540;49.448;8.612;2022-12-17T16:54:54;-3.70;99.90
1107;DHT22;540;49.448;8.612;2022-12-17T16:57:22;-3.80;99.90
1107;DHT22;540;49.448;8.612;2022-12-17T16:59:49;-4.20;99.90
1107;DHT22;540;49.448;8.612;2022-12-17T17:02:18;-4.00;99.90
1107;DHT22;540;49.448;8.612;2022-12-17T17:04:46;-3.80;99.90
1107;DHT22;540;49.448;8.612;2022-12-17T17:07:14;-3.90;99.90
1107;DHT22;540;49.448;8.612;2022-12-17T17:09:42;-4.10;99.90
1107;DHT22;540;49.448;8.612;2022-12-17T17:12:10;-4.20;99.90
1107;DHT22;540;49.448;8.612;2022-12-17T17:14:39;-4.00;99.90
1107;DHT22;540;49.448;8.612;2022-12-17T17:17:09;-4.20;99.90
1107;DHT22;540;49.448;8.612;2022-12-17T17:19:38;-3.90;99.90
1107;DHT22;540;49.448;8.612;2022-12-17T17:22:06;-4.10;99.90
1107;DHT22;540;49.448;8.612;2022-12-17T17:24:34;-4.20;99.90
1107;DHT22;540;49.448;8.612;2022-12-17T17:27:02;-4.30;99.90
1107;DHT22;540;49.448;8.612;2022-12-17T17:29:29;-4.20;99.90
1107;DHT22;540;49.448;8.612;2022-12-17T17:31:57;-4.20;99.90
1107;DHT22;540;49.448;8.612;2022-12-17T17:34:42;-4.00;99.90
1107;DHT22;540;49.448;8.612;2022-12-17T17:37:09;-4.10;99.90
1107;DHT22;540;49.448;8.612;2022-12-17T17:39:37;-4.10;99.90
1107;DHT22;540;49.448;8.612;2022-12-17T17:42:05;-4.20;99.90
1107;DHT22;540;49.448;8.612;2022-12-17T17:44:33;-4.50;99.90
1107;DHT22;540;49.448;8.612;2022-12-17T17:47:01;-4.50;99.90
1107;DHT22;540;49.448;8.612;2022-12-17T17:49:29;-4.30;99.90
1107;DHT22;540;49.448;8.612;2022-12-17T17:51:58;-4.50;99.90
1107;DHT22;540;49.448;8.612;2022-12-17T17:54:35;-4.40;99.90
1107;DHT22;540;49.448;8.612;2022-12-17T17:57:03;-4.50;99.90
1107;DHT22;540;49.448;8.612;2022-12-17T17:59:31;-4.30;99.90
1107;DHT22;540;49.448;8.612;2022-12-17T18:02:00;-4.30;99.90
1107;DHT22;540;49.448;8.612;2022-12-17T18:04:29;-4.60;99.90
1107;DHT22;540;49.448;8.612;2022-12-17T18:06:59;-4.50;99.90
1107;DHT22;540;49.448;8.612;2022-12-17T18:09:47;-4.70;99.90
1107;DHT22;540;49.448;8.612;2022-12-17T18:12:14;-4.60;99.90
1107;DHT22;540;49.448;8.612;2022-12-17T18:15:00;-4.60;99.90
1107;DHT22;540;49.448;8.612;2022-12-17T18:17:41;-4.40;99.90
1107;DHT22;540;49.448;8.612;2022-12-17T18:20:10;-4.50;99.90
1107;DHT22;540;49.448;8.612;2022-12-17T18:22:40;-4.30;99.90
1107;DHT22;540;49.448;8.612;2022-12-17T18:25:09;-4.40;99.90
1107;DHT22;540;49.448;8.612;2022-12-17T18:27:39;-4.20;99.90
1107;DHT22;540;49.448;8.612;2022-12-17T18:30:09;-4.20;99.90
1107;DHT22;540;49.448;8.612;2022-12-17T18:32:37;-4.20;99.90
1107;DHT22;540;49.448;8.612;2022-12-17T18:35:05;-4.20;99.90
1107;DHT22;540;49.448;8.612;2022-12-17T18:37:34;-4.00;99.90
1107;DHT22;540;49.448;8.612;2022-12-17T18:40:04;-4.40;99.90
1107;DHT22;540;49.448;8.612;2022-12-17T18:42:32;-4.20;99.90
1107;DHT22;540;49.448;8.612;2022-12-17T18:45:17;-4.40;99.90
1107;DHT22;540;49.448;8.612;2022-12-17T18:47:45;-4.20;99.90
1107;DHT22;540;49.448;8.612;2022-12-17T18:50:13;-4.30;99.90
1107;DHT22;540;49.448;8.612;2022-12-17T18:52:41;-4.50;99.90
1107;DHT22;540;49.448;8.612;2022-12-17T18:55:10;-4.30;99.90
1107;DHT22;540;49.448;8.612;2022-12-17T18:57:39;-4.80;99.90
1107;DHT22;540;49.448;8.612;2022-12-17T19:00:08;-4.20;99.90
1107;DHT22;540;49.448;8.612;2022-12-17T19:02:36;-4.50;99.90
1107;DHT22;540;49.448;8.612;2022-12-17T19:05:04;-4.20;99.90
1107;DHT22;540;49.448;8.612;2022-12-17T19:07:32;-4.10;99.90
1107;DHT22;540;49.448;8.612;2022-12-17T19:10:00;-4.20;99.90
1107;DHT22;540;49.448;8.612;2022-12-17T19:12:29;-4.50;99.90
1107;DHT22;540;49.448;8.612;2022-12-17T19:14:57;-4.60;99.90
1107;DHT22;540;49.448;8.612;2022-12-17T19:17:25;-4.50;99.90
1107;DHT22;540;49.448;8.612;2022-12-17T19:19:52;-4.40;99.90
1107;DHT22;540;49.448;8.612;2022-12-17T19:22:20;-4.50;99.90
1107;DHT22;540;49.448;8.612;2022-12-17T19:24:48;-4.30;99.90
1107;DHT22;540;49.448;8.612;2022-12-17T19:27:16;-4.30;99.90
1107;DHT22;540;49.448;8.612;2022-12-17T19:29:45;-4.70;99.90
1107;DHT22;540;49.448;8.612;2022-12-17T19:32:15;-4.60;99.90
1107;DHT22;540;49.448;8.612;2022-12-17T19:34:43;-4.60;99.90
1107;DHT22;540;49.448;8.612;2022-12-17T19:37:11;-4.70;99.90
1107;DHT22;540;49.448;8.612;2022-12-17T19:39:39;-4.40;99.90
1107;DHT22;540;49.448;8.612;2022-12-17T19:42:06;-4.60;99.90
1107;DHT22;540;49.448;8.612;2022-12-17T19:44:51;-4.50;99.90
1107;DHT22;540;49.448;8.612;2022-12-17T19:47:19;-4.50;99.90
1107;DHT22;540;49.448;8.612;2022-12-17T19:49:47;-4.50;99.90
1107;DHT22;540;49.448;8.612;2022-12-17T19:52:15;-4.50;99.90
1107;DHT22;540;49.448;8.612;2022-12-17T19:54:43;-4.50;99.90
1107;DHT22;540;49.448;8.612;2022-12-17T19:57:10;-4.50;99.90
1107;DHT22;540;49.448;8.612;2022-12-17T19:59:38;-4.40;99.90
1107;DHT22;540;49.448;8.612;2022-12-17T20:02:08;-4.30;99.90
1107;DHT22;540;49.448;8.612;2022-12-17T20:04:37;-4.40;99.90
1107;DHT22;540;49.448;8.612;2022-12-17T20:07:04;-4.70;99.90
1107;DHT22;540;49.448;8.612;2022-12-17T20:09:32;-4.50;99.90
1107;DHT22;540;49.448;8.612;2022-12-17T20:12:00;-4.60;99.90
1107;DHT22;540;49.448;8.612;2022-12-17T20:14:28;-4.60;99.90
1107;DHT22;540;49.448;8.612;2022-12-17T20:16:58;-4.70;99.90
1107;DHT22;540;49.448;8.612;2022-12-17T20:19:30;-4.60;99.90
1107;DHT22;540;49.448;8.612;2022-12-17T20:22:00;-4.60;99.90
1107;DHT22;540;49.448;8.612;2022-12-17T20:24:28;-4.70;99.90
1107;DHT22;540;49.448;8.612;2022-12-17T20:26:58;-4.70;99.90
1107;DHT22;540;49.448;8.612;2022-12-17T20:29:34;-4.40;99.90
1107;DHT22;540;49.448;8.612;2022-12-17T20:32:06;-4.70;99.90
1107;DHT22;540;49.448;8.612;2022-12-17T20:34:37;-5.10;99.90
1107;DHT22;540;49.448;8.612;2022-12-17T20:37:07;-4.40;99.90
1107;DHT22;540;49.448;8.612;2022-12-17T20:39:37;-4.50;99.90
1107;DHT22;540;49.448;8.612;2022-12-17T20:42:08;-4.50;99.90
1107;DHT22;540;49.448;8.612;2022-12-17T20:44:37;-4.40;99.90
1107;DHT22;540;49.448;8.612;2022-12-17T20:47:07;-4.50;99.90
1107;DHT22;540;49.448;8.612;2022-12-17T20:49:39;-4.40;99.90
1107;DHT22;540;49.448;8.612;2022-12-17T20:52:08;-4.30;99.90
1107;DHT22;540;49.448;8.612;2022-12-17T20:54:37;-4.40;99.90
1107;DHT22;540;49.448;8.612;2022-12-17T20:57:08;-4.20;99.90
1107;DHT22;540;49.448;8.612;2022-12-17T20:59:37;-4.00;99.90
1107;DHT22;540;49.448;8.612;2022-12-17T21:02:08;-4.20;99.90
